Time;durP1;ratioP1;P1;durP2;ratioP2;P2;SDS_P1;SDS_P2;PMS_P1;PMS_P2;Temp;Humidity;BMP_temperature;BMP_pressure;BME280_temperature;BME280_humidity;BME280_pressure;Samples;Min_cycle;Max_cycle;Signal;HPM_P1;HPM_P2
2022/12/07 00:01:33;;;;;;;15.52;2.78;;;9.10;35.90;;;;;;5079912;28;20139;-63
2022/12/07 00:04:04;;;;;;;19.20;1.98;;;9.00;53.60;;;;;;5085595;28;20040;-63
2022/12/07 00:06:35;;;;;;;12.80;1.98;;;9.00;72.30;;;;;;5081560;28;20429;-63
2022/12/07 00:09:01;;;;;;;16.52;2.78;;;9.00;91.70;;;;;;5091906;28;20076;-63
2022/12/07 00:11:26;;;;;;;15.82;3.13;;;9.10;99.90;;;;;;5077785;28;20044;-63
2022/12/07 00:13:54;;;;;;;12.90;2.78;;;9.10;99.90;;;;;;5083285;28;20065;-63
2022/12/07 00:16:22;;;;;;;18.55;2.45;;;9.10;99.90;;;;;;5072348;28;20052;-63
2022/12/07 00:18:47;;;;;;;18.88;3.50;;;9.10;99.90;;;;;;5090387;28;20099;-63
2022/12/07 00:21:15;;;;;;;14.55;3.10;;;9.90;99.90;;;;;;5081125;28;20064;-63
2022/12/07 00:23:42;;;;;;;13.35;2.67;;;9.20;99.90;;;;;;5092178;28;20032;-63
2022/12/07 00:26:10;;;;;;;14.45;2.85;;;9.10;99.90;;;;;;5092402;28;20044;-63
2022/12/07 00:28:36;;;;;;;16.58;2.65;;;9.20;99.90;;;;;;5092739;28;20092;-63
2022/12/07 00:31:08;;;;;;;13.75;2.80;;;9.00;99.90;;;;;;5078819;28;20107;-63
2022/12/07 00:33:34;;;;;;;18.58;3.15;;;8.90;99.90;;;;;;5092593;28;20165;-63
2022/12/07 00:36:02;;;;;;;22.23;3.42;;;9.00;99.90;;;;;;5088419;28;20580;-63
2022/12/07 00:38:30;;;;;;;17.10;2.97;;;8.90;99.90;;;;;;5081979;28;20114;-63
2022/12/07 00:41:07;;;;;;;13.52;3.00;;;8.90;99.90;;;;;;5082414;28;20114;-63
2022/12/07 00:43:32;;;;;;;20.02;2.88;;;8.90;99.90;;;;;;5085388;28;20047;-63
2022/12/07 00:45:58;;;;;;;19.45;3.17;;;9.00;99.90;;;;;;5081241;28;20445;-63
2022/12/07 00:48:24;;;;;;;21.48;3.03;;;8.90;99.90;;;;;;5092217;28;20032;-63
2022/12/07 00:50:50;;;;;;;20.60;3.38;;;8.80;99.90;;;;;;5084210;28;20506;-63
2022/12/07 00:53:16;;;;;;;17.83;3.03;;;8.90;99.90;;;;;;5076470;28;20102;-63
2022/12/07 00:55:42;;;;;;;13.82;2.42;;;9.10;99.90;;;;;;5072128;28;20037;-63
2022/12/07 00:58:08;;;;;;;19.15;2.58;;;9.10;99.90;;;;;;5076280;28;20055;-63
2022/12/07 01:00:36;;;;;;;18.48;2.88;;;9.20;99.90;;;;;;5076467;28;20040;-63
2022/12/07 01:03:02;;;;;;;21.33;2.80;;;9.10;99.90;;;;;;5083489;28;20036;-63
2022/12/07 01:05:27;;;;;;;17.42;2.47;;;9.20;99.90;;;;;;5084804;28;20044;-63
2022/12/07 01:07:53;;;;;;;23.17;3.03;;;9.00;1.00;;;;;;5076279;28;20033;-63
2022/12/07 01:10:19;;;;;;;17.17;2.53;;;9.10;1.00;;;;;;5072734;28;20040;-63
2022/12/07 01:12:44;;;;;;;20.15;3.58;;;9.00;1.00;;;;;;5081075;28;20466;-63
2022/12/07 01:15:11;;;;;;;16.38;2.90;;;9.10;1.00;;;;;;5087668;28;20508;-63
2022/12/07 01:17:36;;;;;;;12.73;2.88;;;9.30;1.00;;;;;;5090832;28;20044;-63
2022/12/07 01:20:03;;;;;;;15.75;2.67;;;9.20;1.00;;;;;;5071636;28;20033;-63
2022/12/07 01:22:28;;;;;;;15.50;2.58;;;9.20;1.00;;;;;;5083227;28;20040;-63
2022/12/07 01:24:54;;;;;;;14.77;2.40;;;9.30;1.00;;;;;;5074429;28;20044;-63
2022/12/07 01:27:20;;;;;;;15.82;2.83;;;9.20;99.90;;;;;;5082553;28;20162;-63
2022/12/07 01:29:45;;;;;;;13.50;2.80;;;9.30;99.90;;;;;;5092066;28;20078;-63
2022/12/07 01:32:11;;;;;;;12.20;2.25;;;9.30;99.90;;;;;;5090116;28;20134;-63
2022/12/07 01:34:37;;;;;;;11.90;2.08;;;9.40;99.90;;;;;;5094489;28;20123;-63
2022/12/07 01:37:02;;;;;;;13.05;2.20;;;9.60;99.90;;;;;;5093854;28;20036;-63
2022/12/07 01:39:28;;;;;;;9.45;1.98;;;9.60;99.90;;;;;;5095619;28;20097;-63
2022/12/07 01:41:54;;;;;;;13.38;2.35;;;9.50;99.90;;;;;;5095390;28;20036;-63
2022/12/07 01:44:27;;;;;;;7.05;1.58;;;9.40;62.90;;;;;;5075976;28;20123;-63
2022/12/07 01:46:55;;;;;;;6.80;1.40;;;9.40;23.50;;;;;;5083920;28;20028;-63
2022/12/07 01:49:42;;;;;;;7.55;1.90;;;9.50;1.00;;;;;;5093233;28;20066;-63
2022/12/07 01:52:13;;;;;;;9.73;2.00;;;9.60;1.00;;;;;;5083660;28;20048;-63
2022/12/07 01:54:39;;;;;;;8.65;1.80;;;9.60;1.00;;;;;;5077394;28;20041;-63
2022/12/07 01:57:07;;;;;;;13.23;2.50;;;9.80;1.00;;;;;;5079517;28;20402;-63
2022/12/07 01:59:33;;;;;;;8.82;2.00;;;10.00;1.00;;;;;;5086115;28;20509;-63
2022/12/07 02:02:01;;;;;;;12.50;2.50;;;9.90;1.00;;;;;;5084910;28;20074;-63
2022/12/07 02:04:28;;;;;;;16.60;2.88;;;10.00;99.90;;;;;;5083615;28;20072;-63
2022/12/07 02:06:55;;;;;;;12.63;2.08;;;9.90;99.90;;;;;;5091896;28;20493;-63
2022/12/07 02:09:21;;;;;;;16.30;2.78;;;9.70;99.90;;;;;;5081413;28;20090;-63
2022/12/07 02:11:46;;;;;;;13.35;2.50;;;9.50;1.00;;;;;;5091519;28;20247;-63
2022/12/07 02:14:12;;;;;;;13.43;2.45;;;9.40;1.00;;;;;;5073922;28;20104;-63
2022/12/07 02:16:59;;;;;;;11.23;1.98;;;9.30;1.00;;;;;;5089675;28;20054;-63
2022/12/07 02:19:47;;;;;;;14.02;2.42;;;9.20;1.00;;;;;;5095023;28;20048;-63
2022/12/07 02:22:42;;;;;;;11.02;2.80;;;9.40;1.00;;;;;;5077217;28;20481;-63
2022/12/07 02:25:33;;;;;;;20.13;3.38;;;9.50;1.00;;;;;;5092222;28;20037;-63
2022/12/07 02:28:04;;;;;;;7.68;1.70;;;9.30;1.00;;;;;;5086670;28;20119;-63
2022/12/07 02:30:34;;;;;;;6.68;1.88;;;9.30;99.90;;;;;;5094527;28;20036;-63
2022/12/07 02:33:13;;;;;;;12.60;1.92;;;9.50;99.90;;;;;;5074994;28;20388;-63
2022/12/07 02:35:53;;;;;;;8.55;2.00;;;9.40;99.90;;;;;;5083638;28;20048;-63
2022/12/07 02:38:39;;;;;;;16.05;2.15;;;9.40;99.90;;;;;;5080212;28;20092;-63
2022/12/07 02:41:11;;;;;;;16.42;2.20;;;9.30;99.90;;;;;;5087773;28;20032;-63
2022/12/07 02:43:44;;;;;;;13.18;2.05;;;9.10;99.90;;;;;;5093220;28;20040;-63
2022/12/07 02:46:23;;;;;;;17.20;3.08;;;9.00;99.90;;;;;;5092899;28;20133;-63
2022/12/07 02:48:50;;;;;;;21.63;2.60;;;8.90;99.90;;;;;;5085898;28;20111;-63
2022/12/07 02:51:18;;;;;;;18.33;2.58;;;8.80;99.90;;;;;;5088098;28;20128;-63
2022/12/07 02:53:44;;;;;;;13.75;2.78;;;8.70;99.90;;;;;;5085788;28;20486;-63
2022/12/07 02:56:26;;;;;;;11.18;2.15;;;8.60;1.00;;;;;;5082469;28;20024;-63
2022/12/07 02:58:54;;;;;;;12.27;2.70;;;8.50;1.00;;;;;;5082848;28;20047;-63
2022/12/07 03:01:43;;;;;;;13.35;2.50;;;8.40;1.00;;;;;;5089814;28;20123;-63
2022/12/07 03:04:42;;;;;;;19.48;2.20;;;8.40;1.00;;;;;;5079906;28;20036;-63
2022/12/07 03:07:31;;;;;;;13.20;2.83;;;8.70;1.00;;;;;;5083496;28;20032;-63
2022/12/07 03:10:22;;;;;;;14.32;2.50;;;8.70;1.00;;;;;;5077706;28;20481;-63
2022/12/07 03:13:11;;;;;;;13.80;2.40;;;8.80;1.00;;;;;;5084642;28;20447;-63
2022/12/07 03:15:49;;;;;;;11.15;2.00;;;8.80;1.00;;;;;;5090989;28;20462;-63
2022/12/07 03:18:20;;;;;;;14.40;2.88;;;8.80;1.00;;;;;;5078745;28;20055;-63
2022/12/07 03:20:47;;;;;;;15.02;2.20;;;8.90;1.00;;;;;;5078808;28;20119;-63
2022/12/07 03:23:16;;;;;;;19.67;2.53;;;8.80;1.00;;;;;;5083557;28;20068;-63
2022/12/07 03:25:47;;;;;;;16.33;2.55;;;8.70;1.00;;;;;;5091931;28;20044;-63
2022/12/07 03:28:17;;;;;;;17.52;2.42;;;8.70;1.00;;;;;;5092951;28;20027;-63
2022/12/07 03:30:51;;;;;;;18.83;2.67;;;8.50;1.00;;;;;;5084680;28;20033;-63
2022/12/07 03:33:25;;;;;;;9.25;1.75;;;8.50;1.00;;;;;;5089670;28;20576;-63
2022/12/07 03:36:06;;;;;;;14.10;2.67;;;8.50;1.00;;;;;;5076133;28;20603;-63
2022/12/07 03:39:05;;;;;;;21.17;2.45;;;8.30;1.00;;;;;;5077503;28;20048;-63
2022/12/07 03:41:34;;;;;;;18.77;2.30;;;8.30;1.00;;;;;;5067555;28;20114;-63
2022/12/07 03:44:00;;;;;;;20.17;2.83;;;8.30;1.00;;;;;;5073031;28;20173;-63
2022/12/07 03:46:56;;;;;;;20.67;2.90;;;8.30;1.00;;;;;;5087856;28;20068;-63
2022/12/07 03:49:42;;;;;;;15.15;2.53;;;8.30;1.00;;;;;;5069177;28;20052;-63
2022/12/07 03:52:27;;;;;;;15.20;2.83;;;8.20;1.00;;;;;;5086558;28;20047;-63
2022/12/07 03:55:01;;;;;;;12.32;2.42;;;8.30;1.00;;;;;;5091590;28;20174;-63
2022/12/07 03:57:30;;;;;;;17.83;2.72;;;8.30;1.00;;;;;;5092906;28;20443;-63
2022/12/07 03:59:56;;;;;;;15.90;2.75;;;8.30;1.00;;;;;;5092184;28;20070;-63
2022/12/07 04:02:23;;;;;;;19.75;2.85;;;8.40;1.00;;;;;;5074155;28;20048;-63
2022/12/07 04:04:49;;;;;;;20.30;2.63;;;8.60;1.00;;;;;;5084593;28;20174;-63
2022/12/07 04:07:15;;;;;;;18.92;2.83;;;8.50;1.00;;;;;;5092721;28;20058;-63
2022/12/07 04:09:40;;;;;;;20.48;2.45;;;8.50;1.00;;;;;;5091181;28;20409;-63
2022/12/07 04:12:06;;;;;;;19.10;3.22;;;8.50;1.00;;;;;;5079601;28;20397;-63
2022/12/07 04:14:32;;;;;;;12.55;2.70;;;8.50;1.00;;;;;;5089705;28;20123;-63
2022/12/07 04:16:58;;;;;;;14.88;2.63;;;8.60;1.00;;;;;;5085192;28;20059;-63
2022/12/07 04:19:27;;;;;;;11.50;2.20;;;8.50;1.00;;;;;;5077165;28;20405;-63
2022/12/07 04:21:53;;;;;;;14.20;2.13;;;8.50;1.00;;;;;;5087004;28;20043;-63
2022/12/07 04:24:18;;;;;;;8.82;2.22;;;8.50;1.00;;;;;;5092339;28;20383;-63
2022/12/07 04:26:45;;;;;;;11.23;2.35;;;8.50;1.00;;;;;;5080159;28;20062;-63
2022/12/07 04:29:11;;;;;;;16.13;1.92;;;8.50;1.00;;;;;;5092700;28;20558;-63
2022/12/07 04:31:37;;;;;;;8.43;1.80;;;8.60;1.00;;;;;;5083512;28;20191;-63
2022/12/07 04:34:03;;;;;;;6.88;2.17;;;8.70;1.00;;;;;;5077470;28;20117;-63
2022/12/07 04:36:29;;;;;;;10.35;2.10;;;8.80;1.00;;;;;;5084519;28;20051;-63
2022/12/07 04:38:55;;;;;;;6.47;1.38;;;8.90;1.00;;;;;;5070832;28;20040;-63
2022/12/07 04:41:26;;;;;;;5.78;1.52;;;8.90;1.00;;;;;;5076360;28;20486;-63
2022/12/07 04:44:03;;;;;;;5.47;1.40;;;8.90;1.00;;;;;;5072256;28;20099;-63
2022/12/07 04:46:30;;;;;;;6.88;1.60;;;8.90;99.90;;;;;;5085793;28;20042;-63
2022/12/07 04:48:57;;;;;;;10.05;2.00;;;9.00;99.90;;;;;;5073682;28;20456;-63
2022/12/07 04:51:28;;;;;;;21.80;3.17;;;9.00;1.00;;;;;;5072305;28;20068;-63
2022/12/07 04:53:53;;;;;;;15.20;2.67;;;8.90;1.00;;;;;;5072701;28;20102;-63
2022/12/07 04:56:19;;;;;;;17.33;2.63;;;8.80;1.00;;;;;;5089670;28;20036;-63
2022/12/07 04:58:46;;;;;;;20.52;2.95;;;8.50;1.00;;;;;;5080874;28;20032;-63
2022/12/07 05:01:14;;;;;;;15.65;2.55;;;8.30;1.00;;;;;;5092188;28;20089;-63
2022/12/07 05:03:39;;;;;;;10.25;2.13;;;8.10;1.00;;;;;;5093051;28;20036;-63
2022/12/07 05:06:06;;;;;;;17.05;2.80;;;8.00;1.00;;;;;;5092887;28;20043;-63
2022/12/07 05:08:32;;;;;;;19.27;3.15;;;7.90;1.00;;;;;;5074753;28;20044;-63
2022/12/07 05:10:58;;;;;;;19.52;3.22;;;8.10;1.00;;;;;;5083779;28;20058;-63
2022/12/07 05:13:24;;;;;;;24.83;3.20;;;7.90;1.00;;;;;;5095529;28;20036;-63
2022/12/07 05:15:49;;;;;;;17.35;2.90;;;7.80;8.20;;;;;;5086626;28;20433;-63
2022/12/07 05:18:15;;;;;;;26.08;3.13;;;8.00;23.00;;;;;;5085951;28;20400;-63
2022/12/07 05:20:41;;;;;;;21.95;3.03;;;7.80;38.20;;;;;;5093215;28;20040;-63
2022/12/07 05:23:07;;;;;;;15.20;2.35;;;7.90;54.70;;;;;;5083271;28;20539;-63
2022/12/07 05:25:33;;;;;;;21.48;3.10;;;7.90;68.70;;;;;;5075696;28;20044;-62
2022/12/07 05:27:59;;;;;;;15.77;2.97;;;7.90;90.60;;;;;;5088495;28;20072;-63
2022/12/07 05:30:25;;;;;;;15.38;2.85;;;7.70;97.00;;;;;;5093098;28;20487;-63
2022/12/07 05:32:51;;;;;;;13.48;2.45;;;7.80;99.80;;;;;;5081611;28;20118;-62
2022/12/07 05:35:17;;;;;;;14.15;2.53;;;7.90;99.90;;;;;;5089059;28;20052;-63
2022/12/07 05:37:43;;;;;;;15.75;2.88;;;7.90;99.90;;;;;;5085593;28;20045;-63
2022/12/07 05:40:09;;;;;;;12.98;2.35;;;7.80;99.90;;;;;;5082316;28;20069;-63
2022/12/07 05:42:35;;;;;;;12.13;2.75;;;7.80;99.90;;;;;;5076610;28;20075;-63
2022/12/07 05:45:00;;;;;;;11.88;2.95;;;7.80;99.90;;;;;;5079857;28;20436;-63
2022/12/07 05:47:26;;;;;;;15.93;3.10;;;7.90;99.90;;;;;;5088404;28;20035;-63
2022/12/07 05:49:52;;;;;;;16.80;2.72;;;8.00;99.90;;;;;;5089411;28;20036;-63
2022/12/07 05:52:17;;;;;;;19.10;2.95;;;8.00;99.90;;;;;;5079466;28;20048;-62
2022/12/07 05:54:43;;;;;;;10.50;2.15;;;8.30;99.90;;;;;;5095319;28;20392;-62
2022/12/07 05:57:09;;;;;;;7.22;1.65;;;8.40;98.20;;;;;;5079994;28;20450;-62
2022/12/07 05:59:34;;;;;;;7.50;1.40;;;8.60;1.00;;;;;;5079727;28;20036;-62
2022/12/07 06:02:06;;;;;;;8.57;2.15;;;8.60;1.00;;;;;;5088538;28;20388;-63
2022/12/07 06:04:38;;;;;;;14.35;2.85;;;8.70;1.00;;;;;;5082413;28;20118;-63
2022/12/07 06:07:04;;;;;;;10.00;1.92;;;8.50;1.00;;;;;;5083235;28;20078;-63
2022/12/07 06:09:30;;;;;;;11.93;2.08;;;8.50;1.00;;;;;;5093242;28;20091;-63
2022/12/07 06:14:41;;;;;;;15.75;2.20;;;8.40;1.00;;;;;;5078496;28;20072;-63
2022/12/07 06:17:07;;;;;;;11.52;2.15;;;8.30;1.00;;;;;;5081834;28;20071;-63
2022/12/07 06:19:32;;;;;;;17.05;2.35;;;8.30;1.00;;;;;;5089273;28;20524;-63
2022/12/07 06:21:58;;;;;;;13.55;2.38;;;8.30;1.00;;;;;;5083322;28;20028;-63
2022/12/07 06:24:24;;;;;;;12.95;2.25;;;8.40;1.00;;;;;;5087712;28;20040;-63
2022/12/07 06:26:49;;;;;;;13.07;2.55;;;8.60;1.00;;;;;;5087816;28;20059;-63
2022/12/07 06:29:17;;;;;;;14.05;2.92;;;8.60;1.00;;;;;;5092255;28;20040;-63
2022/12/07 06:31:42;;;;;;;12.23;2.05;;;8.60;1.00;;;;;;5085897;28;20497;-63
2022/12/07 06:34:14;;;;;;;13.40;2.40;;;8.40;1.00;;;;;;5084446;28;20047;-63
2022/12/07 06:36:40;;;;;;;9.73;1.98;;;8.40;1.00;;;;;;5076682;28;20570;-63
2022/12/07 06:39:06;;;;;;;19.10;2.67;;;8.30;1.00;;;;;;5087304;28;20036;-63
2022/12/07 06:41:32;;;;;;;17.17;2.58;;;8.20;1.00;;;;;;5090796;28;20036;-63
2022/12/07 06:43:57;;;;;;;14.15;2.30;;;8.30;1.00;;;;;;5080484;28;20163;-63
2022/12/07 06:46:23;;;;;;;14.05;2.45;;;8.20;1.00;;;;;;5079264;28;20032;-63
2022/12/07 06:48:49;;;;;;;18.60;2.35;;;8.10;1.00;;;;;;5088945;28;20040;-62
2022/12/07 06:51:16;;;;;;;11.25;1.90;;;8.10;1.00;;;;;;5085422;28;20036;-63
2022/12/07 06:53:42;;;;;;;10.63;2.00;;;8.20;1.00;;;;;;5083971;28;20548;-63
2022/12/07 06:56:07;;;;;;;11.80;2.10;;;8.20;1.00;;;;;;5085692;28;20044;-63
2022/12/07 06:58:33;;;;;;;12.68;2.65;;;8.30;1.00;;;;;;5079182;28;20060;-63
2022/12/07 07:00:59;;;;;;;20.10;3.42;;;8.40;1.00;;;;;;5085294;28;20032;-63
2022/12/07 07:03:24;;;;;;;21.45;2.92;;;8.50;1.00;;;;;;5081474;28;20097;-63
2022/12/07 07:05:50;;;;;;;15.00;2.97;;;8.40;1.00;;;;;;5086399;28;20048;-63
2022/12/07 07:08:15;;;;;;;10.07;2.72;;;8.40;1.00;;;;;;5088668;28;20036;-63
2022/12/07 07:10:41;;;;;;;16.70;2.85;;;8.30;1.00;;;;;;5093487;28;20062;-63
2022/12/07 07:13:07;;;;;;;15.63;2.58;;;8.30;1.00;;;;;;5082624;28;20040;-63
2022/12/07 07:15:33;;;;;;;11.23;2.00;;;8.20;1.00;;;;;;5082636;28;20059;-63
2022/12/07 07:17:59;;;;;;;13.85;2.78;;;8.20;1.00;;;;;;5087401;28;20052;-63
2022/12/07 07:20:25;;;;;;;15.68;2.35;;;8.20;1.00;;;;;;5085085;28;20040;-63
2022/12/07 07:22:53;;;;;;;12.05;2.22;;;8.20;1.00;;;;;;5089571;28;20671;-63
2022/12/07 07:25:18;;;;;;;14.95;2.58;;;8.10;1.00;;;;;;5092891;28;20048;-63
2022/12/07 07:27:44;;;;;;;15.20;2.85;;;8.20;1.00;;;;;;5089199;28;20055;-63
2022/12/07 07:30:10;;;;;;;17.17;2.78;;;8.10;1.00;;;;;;5086462;28;20396;-63
2022/12/07 07:32:35;;;;;;;16.40;2.20;;;8.10;1.00;;;;;;5091342;28;20111;-63
2022/12/07 07:35:01;;;;;;;16.23;2.72;;;8.00;1.00;;;;;;5086307;28;20044;-63
2022/12/07 07:37:26;;;;;;;11.60;3.08;;;7.90;1.00;;;;;;5092681;28;20131;-63
2022/12/07 07:39:52;;;;;;;20.20;2.90;;;7.90;1.00;;;;;;5084557;28;20066;-62
2022/12/07 07:42:17;;;;;;;17.30;2.95;;;8.00;1.00;;;;;;5080675;28;20448;-63
2022/12/07 07:44:43;;;;;;;12.35;2.65;;;7.90;1.00;;;;;;5084005;28;20040;-62
2022/12/07 07:47:09;;;;;;;21.48;3.30;;;8.00;1.00;;;;;;5083828;28;20036;-63
2022/12/07 07:49:34;;;;;;;22.30;2.88;;;8.00;1.00;;;;;;5091681;28;20032;-62
2022/12/07 07:52:00;;;;;;;16.73;3.00;;;8.00;1.00;;;;;;5088740;28;20067;-63
2022/12/07 07:54:25;;;;;;;20.17;3.10;;;8.10;1.00;;;;;;5085947;28;20044;-63
2022/12/07 07:56:52;;;;;;;16.58;3.20;;;8.20;1.00;;;;;;5082004;28;20043;-63
2022/12/07 07:59:18;;;;;;;17.70;3.30;;;8.20;1.00;;;;;;5072643;28;20105;-70
2022/12/07 08:01:43;;;;;;;20.75;3.53;;;8.20;1.00;;;;;;5072639;28;20422;-63
2022/12/07 08:04:09;;;;;;;18.90;3.10;;;8.30;1.00;;;;;;5075696;28;20029;-63
2022/12/07 08:06:35;;;;;;;13.85;2.67;;;8.10;1.00;;;;;;5078773;28;20062;-63
2022/12/07 08:09:00;;;;;;;15.50;2.70;;;8.10;1.00;;;;;;5088394;28;20040;-63
2022/12/07 08:11:26;;;;;;;15.88;3.00;;;8.20;1.00;;;;;;5092163;28;20039;-63
2022/12/07 08:13:52;;;;;;;19.20;2.80;;;8.30;1.00;;;;;;5085619;28;20070;-63
2022/12/07 08:16:17;;;;;;;21.40;3.78;;;8.20;1.00;;;;;;5088445;28;20412;-63
2022/12/07 08:18:43;;;;;;;20.08;3.33;;;8.10;1.00;;;;;;5080878;28;20062;-63
2022/12/07 08:21:12;;;;;;;16.02;3.15;;;8.20;1.00;;;;;;5080770;28;20047;-62
2022/12/07 08:23:37;;;;;;;18.30;3.08;;;8.20;1.00;;;;;;5082488;28;21975;-62
2022/12/07 08:26:05;;;;;;;23.45;3.40;;;8.10;1.00;;;;;;5079275;28;20068;-63
2022/12/07 08:28:32;;;;;;;22.10;2.95;;;8.20;1.00;;;;;;5089122;28;20109;-62
2022/12/07 08:31:02;;;;;;;24.27;2.97;;;8.10;4.80;;;;;;5086765;28;20066;-62
2022/12/07 08:33:28;;;;;;;16.17;3.53;;;8.20;16.90;;;;;;5078768;28;20078;-62
2022/12/07 08:35:53;;;;;;;15.65;3.53;;;8.10;29.40;;;;;;5077142;28;20489;-62
2022/12/07 08:38:19;;;;;;;18.00;3.30;;;8.00;40.80;;;;;;5078114;28;20040;-63
2022/12/07 08:40:53;;;;;;;13.57;3.30;;;8.00;46.90;;;;;;5077540;28;20036;-63
2022/12/07 08:43:18;;;;;;;24.75;3.88;;;7.70;66.20;;;;;;5083989;28;20040;-62
2022/12/07 08:45:44;;;;;;;18.60;3.22;;;7.80;67.40;;;;;;5076313;28;20067;-62
2022/12/07 08:48:12;;;;;;;19.33;3.05;;;7.80;78.60;;;;;;5090742;28;20036;-62
2022/12/07 08:50:38;;;;;;;15.38;2.55;;;7.70;93.00;;;;;;5085784;28;20127;-62
2022/12/07 08:53:05;;;;;;;13.20;2.58;;;7.60;99.90;;;;;;5090662;28;20111;-62
2022/12/07 08:55:32;;;;;;;14.95;2.30;;;7.60;99.90;;;;;;5078438;28;20040;-62
2022/12/07 08:57:59;;;;;;;12.10;2.83;;;7.60;99.90;;;;;;5081532;28;20036;-63
2022/12/07 09:00:26;;;;;;;15.15;3.70;;;7.70;99.90;;;;;;5079714;28;20032;-63
2022/12/07 09:02:51;;;;;;;16.00;2.70;;;7.80;99.90;;;;;;5091337;28;20036;-63
2022/12/07 09:05:17;;;;;;;12.57;2.60;;;7.90;99.90;;;;;;5086729;28;20100;-63
2022/12/07 09:07:45;;;;;;;25.85;2.95;;;7.90;99.90;;;;;;5081667;28;20032;-62
2022/12/07 09:10:11;;;;;;;20.20;3.92;;;8.10;99.90;;;;;;5074625;28;20125;-62
2022/12/07 09:12:37;;;;;;;13.80;2.00;;;8.20;99.90;;;;;;5086182;28;20134;-62
2022/12/07 09:15:03;;;;;;;13.43;2.83;;;8.30;99.90;;;;;;5083223;28;20426;-63
2022/12/07 09:17:32;;;;;;;14.05;2.20;;;8.30;99.90;;;;;;5071469;28;20070;-62
2022/12/07 09:19:58;;;;;;;11.70;2.47;;;8.30;99.90;;;;;;5079214;28;20095;-63
2022/12/07 09:22:24;;;;;;;13.85;2.40;;;8.40;99.90;;;;;;5083857;28;20035;-63
2022/12/07 09:24:49;;;;;;;14.43;2.72;;;8.50;99.90;;;;;;5090406;28;20063;-63
2022/12/07 09:27:17;;;;;;;15.35;2.30;;;8.50;99.90;;;;;;5077121;28;20033;-63
2022/12/07 09:29:42;;;;;;;13.23;2.13;;;8.60;99.90;;;;;;5079527;28;20382;-63
2022/12/07 09:32:08;;;;;;;11.00;2.25;;;8.80;99.90;;;;;;5083165;28;20390;-63
2022/12/07 09:34:34;;;;;;;16.33;3.03;;;8.90;62.50;;;;;;5088599;28;20039;-63
2022/12/07 09:37:02;;;;;;;10.30;2.30;;;9.00;1.00;;;;;;5088245;28;20043;-63
2022/12/07 09:39:28;;;;;;;11.68;2.25;;;9.10;1.00;;;;;;5089434;28;20549;-63
2022/12/07 09:41:53;;;;;;;13.32;2.40;;;9.20;1.00;;;;;;5075352;28;20127;-63
2022/12/07 09:44:25;;;;;;;16.38;2.47;;;9.30;1.00;;;;;;5081979;28;20047;-63
2022/12/07 09:46:52;;;;;;;13.88;2.80;;;9.30;1.00;;;;;;5083320;28;20046;-63
2022/12/07 09:49:21;;;;;;;4.43;1.15;;;9.30;1.00;;;;;;5084565;28;20044;-63
2022/12/07 09:51:47;;;;;;;3.88;1.10;;;9.20;99.90;;;;;;5086868;28;20076;-63
2022/12/07 09:54:16;;;;;;;6.50;1.50;;;9.00;99.90;;;;;;5086716;28;20058;-62
2022/12/07 09:56:43;;;;;;;5.28;1.60;;;8.90;99.90;;;;;;5092694;28;20036;-63
2022/12/07 09:59:18;;;;;;;5.88;1.30;;;8.80;99.90;;;;;;5083977;28;20044;-63
2022/12/07 10:01:49;;;;;;;5.05;1.35;;;8.80;99.90;;;;;;5082754;28;20043;-63
2022/12/07 10:04:25;;;;;;;4.65;1.30;;;8.80;99.90;;;;;;5086065;28;20058;-63
2022/12/07 10:06:51;;;;;;;;;;;8.80;99.90;;;;;;5088734;28;20551;-62
2022/12/07 10:09:20;;;;;;;9.73;1.70;;;8.90;99.90;;;;;;5079880;28;19966;-62
2022/12/07 10:12:11;;;;;;;8.82;1.55;;;9.00;99.90;;;;;;5089223;28;20060;-62
2022/12/07 10:14:40;;;;;;;11.75;1.98;;;9.00;99.90;;;;;;5090472;28;20035;-62
2022/12/07 10:17:28;;;;;;;5.15;1.27;;;9.10;99.90;;;;;;5087314;28;20133;-62
2022/12/07 10:20:11;;;;;;;10.45;2.22;;;9.00;99.90;;;;;;5088486;28;20055;-62
2022/12/07 10:22:36;;;;;;;9.90;2.22;;;9.00;99.90;;;;;;5084602;28;20036;-63
2022/12/07 10:25:16;;;;;;;17.30;2.70;;;9.10;99.90;;;;;;5088479;28;20043;-62
2022/12/07 10:27:42;;;;;;;10.77;1.95;;;9.10;99.90;;;;;;5085771;28;20045;-63
2022/12/07 10:30:13;;;;;;;8.77;2.05;;;9.00;99.90;;;;;;5082414;28;20367;-63
2022/12/07 10:32:39;;;;;;;12.05;2.15;;;9.00;99.90;;;;;;5076819;28;20090;-63
2022/12/07 10:35:27;;;;;;;13.68;2.65;;;9.00;99.90;;;;;;5088030;28;20523;-63
2022/12/07 10:37:54;;;;;;;16.02;2.13;;;9.10;99.90;;;;;;5089853;28;20046;-62
2022/12/07 10:40:36;;;;;;;11.00;2.10;;;9.10;99.90;;;;;;5085187;28;20193;-62
2022/12/07 10:43:14;;;;;;;13.82;2.25;;;9.10;99.90;;;;;;5087448;28;20024;-64
2022/12/07 10:46:07;;;;;;;12.63;2.53;;;9.00;99.90;;;;;;5088616;28;20036;-63
2022/12/07 10:49:03;;;;;;;15.15;2.95;;;9.00;99.90;;;;;;5083501;28;20035;-63
2022/12/07 10:51:55;;;;;;;10.18;2.15;;;8.90;99.90;;;;;;5075925;28;20577;-63
2022/12/07 10:54:48;;;;;;;15.15;2.20;;;8.90;99.90;;;;;;5091848;28;20077;-63
2022/12/07 10:57:31;;;;;;;11.30;2.25;;;8.90;99.90;;;;;;5080941;28;20064;-62
2022/12/07 11:00:02;;;;;;;16.35;2.97;;;8.90;99.90;;;;;;5087646;28;20047;-63
2022/12/07 11:02:40;;;;;;;15.85;2.50;;;9.00;99.90;;;;;;5092117;28;20047;-63
2022/12/07 11:05:43;;;;;;;15.18;1.67;;;9.00;99.90;;;;;;5083912;28;20036;-63
2022/12/07 11:08:14;;;;;;;15.75;2.40;;;9.00;99.90;;;;;;5083135;28;20044;-63
2022/12/07 11:11:23;;;;;;;8.38;1.70;;;9.00;99.90;;;;;;5088300;28;20059;-63
2022/12/07 11:14:29;;;;;;;12.45;2.28;;;8.90;99.90;;;;;;5090684;28;20043;-63
2022/12/07 11:17:03;;;;;;;6.82;1.80;;;8.90;99.90;;;;;;5093829;28;20391;-63
2022/12/07 11:19:52;;;;;;;12.07;1.90;;;8.80;99.90;;;;;;5093880;28;20063;-63
2022/12/07 11:22:46;;;;;;;15.45;2.42;;;8.70;99.90;;;;;;5076623;28;20139;-63
2022/12/07 11:25:26;;;;;;;12.57;2.20;;;8.70;99.90;;;;;;5070306;28;20076;-63
2022/12/07 11:28:03;;;;;;;11.52;2.45;;;8.60;99.90;;;;;;5073113;28;20043;-63
2022/12/07 11:30:53;;;;;;;14.27;2.05;;;8.50;99.90;;;;;;5089585;28;20055;-63
2022/12/07 11:33:34;;;;;;;13.82;2.20;;;8.50;99.90;;;;;;5085513;28;20582;-63
2022/12/07 11:36:10;;;;;;;10.50;2.05;;;8.60;99.90;;;;;;5079943;28;20036;-62
2022/12/07 11:38:42;;;;;;;;;;;8.50;99.90;;;;;;5074063;28;20041;-62
2022/12/07 11:41:15;;;;;;;10.23;1.85;;;8.50;99.90;;;;;;5078528;28;19917;-63
2022/12/07 11:44:07;;;;;;;9.27;1.77;;;8.50;99.90;;;;;;5072656;28;20040;-62
2022/12/07 11:47:07;;;;;;;11.50;2.35;;;8.60;99.90;;;;;;5069134;28;20066;-63
2022/12/07 11:50:00;;;;;;;10.25;1.70;;;8.70;99.90;;;;;;5079589;28;20043;-63
2022/12/07 11:52:33;;;;;;;11.50;2.22;;;8.70;99.90;;;;;;5088740;28;20493;-62
2022/12/07 11:55:01;;;;;;;12.55;2.22;;;8.80;99.90;;;;;;5084417;28;20044;-63
2022/12/07 11:57:36;;;;;;;12.88;3.03;;;8.90;99.90;;;;;;5089364;28;20047;-63
2022/12/07 12:00:11;;;;;;;11.75;1.92;;;8.90;99.90;;;;;;5081068;28;20110;-63
2022/12/07 12:03:08;;;;;;;11.95;1.98;;;8.90;99.90;;;;;;5082580;28;20048;-63
2022/12/07 12:05:33;;;;;;;8.83;2.23;;;9.00;99.90;;;;;;5075785;28;20139;-63
2022/12/07 12:08:21;;;;;;;12.93;1.95;;;9.00;99.90;;;;;;5090117;28;20116;-63
2022/12/07 12:11:01;;;;;;;7.85;1.75;;;9.00;99.90;;;;;;5078675;28;20115;-63
2022/12/07 12:13:45;;;;;;;12.00;2.55;;;9.00;99.90;;;;;;5086509;28;20036;-63
2022/12/07 12:16:26;;;;;;;11.32;1.77;;;9.00;99.90;;;;;;5088839;28;20054;-63
2022/12/07 12:19:20;;;;;;;17.63;2.17;;;9.00;99.90;;;;;;5072035;28;20037;-63
2022/12/07 12:21:49;;;;;;;10.20;1.85;;;9.00;99.90;;;;;;5089868;28;20032;-63
2022/12/07 12:24:20;;;;;;;7.88;1.60;;;8.90;99.90;;;;;;5086094;28;20532;-63
2022/12/07 12:26:59;;;;;;;8.02;1.55;;;9.00;99.90;;;;;;5088357;28;20029;-63
2022/12/07 12:29:38;;;;;;;6.47;1.80;;;9.00;99.90;;;;;;5072359;28;20115;-63
2022/12/07 12:32:23;;;;;;;14.20;2.28;;;9.00;99.90;;;;;;5072369;28;20190;-63
2022/12/07 12:35:07;;;;;;;15.55;1.90;;;9.00;99.90;;;;;;5075843;28;20166;-63
2022/12/07 12:37:32;;;;;;;9.43;2.20;;;9.00;99.90;;;;;;5078261;28;20067;-63
2022/12/07 12:40:21;;;;;;;13.27;2.00;;;9.00;99.90;;;;;;5082375;28;20445;-63
2022/12/07 12:42:55;;;;;;;13.80;1.98;;;8.90;99.90;;;;;;5071404;28;20060;-63
2022/12/07 12:45:27;;;;;;;6.55;1.48;;;8.90;99.90;;;;;;5088380;28;20036;-63
2022/12/07 12:48:00;;;;;;;6.20;1.65;;;8.90;99.90;;;;;;5085129;28;20040;-63
2022/12/07 12:50:38;;;;;;;11.77;1.83;;;8.80;99.90;;;;;;5090565;28;20047;-63
2022/12/07 12:53:25;;;;;;;11.57;1.73;;;8.80;99.90;;;;;;5083376;28;20747;-63
2022/12/07 12:56:09;;;;;;;12.00;2.05;;;8.60;99.90;;;;;;5084094;28;20824;-63
2022/12/07 12:58:37;;;;;;;8.80;1.77;;;8.60;99.90;;;;;;5082163;28;20036;-63
2022/12/07 13:01:28;;;;;;;8.82;1.95;;;8.50;99.90;;;;;;5084786;28;20114;-63
2022/12/07 13:03:56;;;;;;;8.35;1.58;;;8.50;99.90;;;;;;5084592;28;20064;-63
2022/12/07 13:06:24;;;;;;;4.00;1.35;;;8.50;99.90;;;;;;5074225;28;20035;-63
2022/12/07 13:08:51;;;;;;;7.75;1.48;;;8.40;99.90;;;;;;5078332;28;20153;-62
2022/12/07 13:11:43;;;;;;;10.07;2.00;;;8.30;99.90;;;;;;5079313;28;20036;-63
2022/12/07 13:14:37;;;;;;;9.93;1.80;;;8.40;99.90;;;;;;5078915;28;20048;-62
2022/12/07 13:17:03;;;;;;;7.80;1.50;;;8.30;99.90;;;;;;5081505;28;20602;-63